Time;durP1;ratioP1;P1;durP2;ratioP2;P2;SDS_P1;SDS_P2;PMS_P1;PMS_P2;Temp;Humidity;BMP_temperature;BMP_pressure;BME280_temperature;BME280_humidity;BME280_pressure;Samples;Min_cycle;Max_cycle;Signal;HPM_P1;HPM_P2
2022/11/22 00:00:49;;;;;;;10.20;6.95;;;5.80;99.90;;;;;;6145684;23;20580;-74
2022/11/22 00:03:16;;;;;;;8.02;6.32;;;5.80;99.90;;;;;;6143068;23;20266;-73
2022/11/22 00:05:43;;;;;;;8.45;6.32;;;5.70;99.90;;;;;;6133598;23;20286;-73
2022/11/22 00:08:10;;;;;;;7.53;6.78;;;5.70;99.90;;;;;;6147331;23;20233;-73
2022/11/22 00:10:37;;;;;;;7.13;6.15;;;5.70;99.90;;;;;;6137262;23;20191;-74
2022/11/22 00:13:05;;;;;;;10.45;7.50;;;5.70;99.90;;;;;;6139453;23;20290;-73
2022/11/22 00:15:32;;;;;;;7.38;6.68;;;5.70;99.90;;;;;;6143802;23;20194;-74
2022/11/22 00:18:01;;;;;;;8.38;6.53;;;5.70;99.90;;;;;;6142985;23;20652;-73
2022/11/22 00:20:28;;;;;;;9.02;7.10;;;5.70;99.90;;;;;;6133675;23;20705;-73
2022/11/22 00:22:56;;;;;;;6.95;5.72;;;5.60;99.90;;;;;;6090998;23;20267;-73
2022/11/22 00:25:24;;;;;;;8.93;6.55;;;5.70;99.90;;;;;;6145721;23;21000;-73
2022/11/22 00:27:51;;;;;;;6.30;5.70;;;5.70;99.90;;;;;;6136870;23;20194;-73
2022/11/22 00:30:18;;;;;;;6.53;5.40;;;5.70;99.90;;;;;;6140235;23;20556;-74
2022/11/22 00:32:45;;;;;;;9.45;6.20;;;5.70;99.90;;;;;;6138885;23;20221;-73
2022/11/22 00:35:14;;;;;;;7.90;5.68;;;5.60;99.90;;;;;;6129910;23;20191;-73
2022/11/22 00:37:41;;;;;;;11.85;6.35;;;5.70;99.90;;;;;;6143944;23;20293;-73
2022/11/22 00:40:09;;;;;;;7.07;5.53;;;5.60;99.90;;;;;;6145972;23;20203;-73
2022/11/22 00:42:36;;;;;;;9.18;5.85;;;5.60;99.90;;;;;;6120779;23;20194;-73
2022/11/22 00:45:03;;;;;;;7.65;5.55;;;5.60;99.90;;;;;;6137757;23;20209;-73
2022/11/22 00:47:31;;;;;;;6.40;5.25;;;5.60;99.90;;;;;;6147887;23;20186;-73
2022/11/22 00:49:57;;;;;;;7.22;5.60;;;5.60;99.90;;;;;;6125624;23;20197;-74
2022/11/22 00:52:26;;;;;;;8.07;5.63;;;5.70;99.90;;;;;;6110251;23;20214;-73
2022/11/22 00:54:53;;;;;;;11.20;6.18;;;5.70;99.90;;;;;;6147142;23;20198;-73
2022/11/22 00:57:21;;;;;;;6.43;5.75;;;5.70;99.90;;;;;;6117966;23;20605;-73
2022/11/22 00:59:49;;;;;;;7.20;5.35;;;5.70;99.90;;;;;;6115897;23;20215;-73
2022/11/22 01:02:17;;;;;;;6.35;5.15;;;5.70;99.90;;;;;;6138412;23;20648;-73
2022/11/22 01:04:44;;;;;;;10.10;5.65;;;5.80;99.90;;;;;;6119343;23;20274;-73
2022/11/22 01:07:11;;;;;;;5.97;4.78;;;5.80;99.90;;;;;;6109124;23;20294;-74
2022/11/22 01:09:39;;;;;;;6.47;4.72;;;5.80;99.90;;;;;;6142007;23;20190;-73
2022/11/22 01:12:07;;;;;;;6.85;5.22;;;5.80;99.90;;;;;;6147165;23;20282;-73
2022/11/22 01:14:34;;;;;;;4.20;3.75;;;5.90;99.90;;;;;;6111084;23;20262;-73
2022/11/22 01:17:02;;;;;;;5.40;3.50;;;5.90;99.90;;;;;;6138657;23;20565;-73
2022/11/22 01:19:29;;;;;;;4.00;3.38;;;6.00;99.90;;;;;;6139588;23;20213;-73
2022/11/22 01:21:56;;;;;;;4.40;4.00;;;6.00;99.90;;;;;;6145884;23;20357;-73
2022/11/22 01:24:23;;;;;;;4.90;3.65;;;6.10;99.90;;;;;;6128840;23;20365;-73
2022/11/22 01:26:53;;;;;;;3.90;3.30;;;6.10;99.90;;;;;;6134510;23;20202;-73
2022/11/22 01:29:20;;;;;;;4.97;3.35;;;6.20;99.90;;;;;;6142465;23;20203;-73
2022/11/22 01:31:47;;;;;;;4.95;3.53;;;6.20;99.90;;;;;;6148723;23;20218;-74
2022/11/22 01:34:14;;;;;;;3.22;2.60;;;6.30;99.90;;;;;;6134877;23;20195;-73
2022/11/22 01:36:41;;;;;;;4.38;2.90;;;6.30;99.90;;;;;;6123389;23;20625;-73
2022/11/22 01:39:10;;;;;;;4.60;2.80;;;6.30;99.90;;;;;;6140092;23;20740;-73
2022/11/22 01:41:37;;;;;;;3.58;2.72;;;6.30;99.90;;;;;;6148198;23;20288;-73
2022/11/22 01:44:23;;;;;;;3.42;2.50;;;6.40;99.90;;;;;;6114206;23;20230;-73
2022/11/22 01:46:53;;;;;;;7.22;2.88;;;6.40;99.90;;;;;;6135094;23;20202;-73
2022/11/22 01:49:26;;;;;;;4.45;2.55;;;6.40;99.90;;;;;;6145908;23;20286;-73
2022/11/22 01:51:57;;;;;;;4.53;2.70;;;6.40;99.90;;;;;;6147540;23;20693;-73
2022/11/22 01:54:27;;;;;;;3.13;2.67;;;6.50;99.90;;;;;;6130857;23;20240;-73
2022/11/22 01:57:00;;;;;;;2.85;2.50;;;6.50;99.90;;;;;;6140536;23;20716;-73
2022/11/22 01:59:33;;;;;;;4.90;3.10;;;6.50;99.90;;;;;;6144961;23;20691;-73
2022/11/22 02:02:01;;;;;;;5.70;3.13;;;6.50;99.90;;;;;;6138012;23;20270;-73
2022/11/22 02:04:30;;;;;;;4.65;2.50;;;6.50;99.90;;;;;;6128992;23;20289;-74
2022/11/22 02:07:03;;;;;;;3.78;2.35;;;6.60;99.90;;;;;;6143822;23;20270;-73
2022/11/22 02:09:32;;;;;;;4.28;2.70;;;6.60;99.90;;;;;;6147728;23;20266;-73
2022/11/22 02:12:03;;;;;;;3.70;2.40;;;6.60;99.90;;;;;;6131485;23;20191;-74
2022/11/22 02:14:34;;;;;;;3.15;2.50;;;6.70;99.90;;;;;;6126461;23;20279;-74
2022/11/22 02:17:02;;;;;;;2.60;1.95;;;6.70;99.90;;;;;;6145258;23;20225;-73
2022/11/22 02:19:39;;;;;;;3.15;2.85;;;6.80;99.90;;;;;;6140504;23;20217;-73
2022/11/22 02:22:18;;;;;;;2.92;2.72;;;6.80;99.90;;;;;;6140784;23;20658;-73
2022/11/22 02:24:54;;;;;;;4.18;2.75;;;6.80;99.90;;;;;;6135390;23;20272;-73
2022/11/22 02:27:24;;;;;;;2.97;2.70;;;6.80;99.90;;;;;;6146073;23;20652;-74
2022/11/22 02:29:51;;;;;;;2.28;1.95;;;6.90;99.90;;;;;;6138299;23;20187;-73
2022/11/22 02:32:18;;;;;;;3.95;2.10;;;6.90;99.90;;;;;;6132564;23;20219;-73
2022/11/22 02:34:49;;;;;;;3.88;2.28;;;6.90;99.90;;;;;;6137502;23;20220;-73
2022/11/22 02:37:21;;;;;;;3.42;2.22;;;6.90;99.90;;;;;;6142748;23;20248;-73
2022/11/22 02:39:49;;;;;;;2.80;2.00;;;6.90;99.90;;;;;;6119606;23;20283;-73
2022/11/22 02:42:17;;;;;;;3.10;2.30;;;6.90;99.90;;;;;;6140318;23;20269;-73
2022/11/22 02:44:45;;;;;;;3.78;1.73;;;6.90;99.90;;;;;;6146800;23;20187;-74
2022/11/22 02:47:13;;;;;;;2.88;2.17;;;6.90;99.90;;;;;;6146234;23;20222;-74
2022/11/22 02:49:42;;;;;;;2.30;1.80;;;6.90;99.90;;;;;;6145678;23;20267;-74
2022/11/22 02:52:09;;;;;;;3.05;1.77;;;6.90;99.90;;;;;;6145979;23;20195;-73
2022/11/22 02:54:36;;;;;;;2.72;2.13;;;6.90;99.90;;;;;;6118408;23;20206;-73
2022/11/22 02:57:03;;;;;;;3.65;2.42;;;6.90;99.90;;;;;;6133631;23;20195;-73
2022/11/22 02:59:30;;;;;;;3.90;2.30;;;6.90;99.90;;;;;;6116771;23;20196;-74
2022/11/22 03:01:59;;;;;;;4.68;2.13;;;7.00;99.90;;;;;;6145903;23;20274;-75
2022/11/22 03:04:26;;;;;;;2.45;1.98;;;7.00;99.90;;;;;;6146694;23;20191;-75
2022/11/22 03:06:55;;;;;;;3.42;2.22;;;6.90;99.90;;;;;;6115052;23;20279;-74
2022/11/22 03:09:23;;;;;;;2.75;2.10;;;6.90;99.90;;;;;;6103923;23;20545;-74
2022/11/22 03:11:50;;;;;;;2.75;1.85;;;6.90;99.90;;;;;;6142996;23;20195;-74
2022/11/22 03:14:17;;;;;;;3.53;2.10;;;6.80;99.90;;;;;;6144393;23;20215;-72
2022/11/22 03:16:46;;;;;;;2.10;1.90;;;6.80;99.90;;;;;;6129657;23;20241;-72
2022/11/22 03:19:14;;;;;;;2.13;1.92;;;6.80;99.90;;;;;;6129340;23;20660;-72
2022/11/22 03:21:42;;;;;;;3.78;2.40;;;6.80;99.90;;;;;;6126635;23;20238;-72
2022/11/22 03:24:11;;;;;;;2.95;2.30;;;6.80;99.90;;;;;;6113097;23;20272;-72
2022/11/22 03:26:38;;;;;;;4.35;2.15;;;6.80;99.90;;;;;;6131668;23;20203;-72
2022/11/22 03:29:05;;;;;;;3.30;2.15;;;6.70;99.90;;;;;;6145454;23;20278;-72
2022/11/22 03:31:32;;;;;;;2.38;1.90;;;6.70;99.90;;;;;;6135140;23;20201;-72
2022/11/22 03:34:00;;;;;;;2.50;2.30;;;6.60;99.90;;;;;;6137583;23;20195;-72
2022/11/22 03:36:28;;;;;;;2.47;2.20;;;6.60;99.90;;;;;;6126759;23;20612;-72
2022/11/22 03:38:55;;;;;;;3.08;2.42;;;6.50;99.90;;;;;;6140667;23;20743;-72
2022/11/22 03:41:22;;;;;;;2.35;2.15;;;6.50;99.90;;;;;;6137884;23;20222;-72
2022/11/22 03:43:49;;;;;;;3.08;2.50;;;6.50;99.90;;;;;;6141731;23;20202;-72
2022/11/22 03:46:18;;;;;;;2.30;2.10;;;6.50;99.90;;;;;;6145113;23;20222;-72
2022/11/22 03:48:45;;;;;;;3.10;2.33;;;6.50;99.90;;;;;;6090555;23;20220;-72
2022/11/22 03:51:12;;;;;;;4.70;2.10;;;6.50;99.90;;;;;;6138826;23;20228;-72
2022/11/22 03:53:41;;;;;;;3.90;1.90;;;6.50;99.90;;;;;;6138118;23;20211;-72
2022/11/22 03:56:08;;;;;;;6.35;2.80;;;6.50;99.90;;;;;;6140223;23;20302;-72
2022/11/22 03:58:36;;;;;;;4.85;2.53;;;6.60;99.90;;;;;;6143164;23;20197;-72
2022/11/22 04:01:03;;;;;;;4.30;2.10;;;6.60;99.90;;;;;;6143802;23;21159;-72
2022/11/22 04:03:31;;;;;;;6.75;2.35;;;6.70;99.90;;;;;;6136858;23;20274;-72
2022/11/22 04:05:58;;;;;;;2.30;1.85;;;6.70;99.90;;;;;;6140206;23;20270;-72
2022/11/22 04:08:25;;;;;;;3.25;2.08;;;6.70;99.90;;;;;;6134679;23;20187;-72
2022/11/22 04:10:54;;;;;;;4.13;1.98;;;6.80;99.90;;;;;;6134351;23;20706;-72
2022/11/22 04:15:05;;;;;;;3.45;2.05;;;6.80;99.90;;;;;;6134629;23;20191;-72
2022/11/22 04:16:08;;;;;;;3.33;1.75;;;6.90;99.90;;;;;;6133297;23;20199;-72
2022/11/22 04:18:35;;;;;;;3.50;2.03;;;7.00;99.90;;;;;;6143099;23;20222;-72
2022/11/22 04:25:12;;;;;;;5.25;2.50;;;6.90;99.90;;;;;;6145996;23;20195;-72
2022/11/22 04:26:35;;;;;;;2.50;2.10;;;6.90;99.90;;;;;;6150934;23;20269;-73
2022/11/22 04:29:03;;;;;;;3.83;2.40;;;6.80;99.90;;;;;;6109365;23;20195;-73
2022/11/22 04:34:15;;;;;;;2.92;2.40;;;6.80;99.90;;;;;;6126488;23;20222;-73
2022/11/22 04:36:42;;;;;;;5.00;2.58;;;6.70;99.90;;;;;;6143479;23;20653;-73
2022/11/22 04:39:10;;;;;;;6.18;2.47;;;6.70;99.90;;;;;;6142771;23;20521;-73
2022/11/22 04:41:38;;;;;;;4.45;2.40;;;6.70;99.90;;;;;;6140585;23;20206;-73
2022/11/22 04:46:50;;;;;;;4.20;2.47;;;6.60;99.90;;;;;;6135876;23;20529;-72
2022/11/22 04:49:18;;;;;;;3.03;1.75;;;6.60;99.90;;;;;;6130281;23;20291;-72
2022/11/22 04:54:29;;;;;;;3.53;2.60;;;6.50;99.90;;;;;;6142933;23;20198;-73
2022/11/22 04:56:58;;;;;;;7.93;2.80;;;6.50;99.90;;;;;;6144386;23;20232;-73
2022/11/22 04:59:25;;;;;;;4.45;2.63;;;6.40;99.90;;;;;;6134347;23;20621;-72
2022/11/22 05:01:52;;;;;;;5.60;2.92;;;6.40;99.90;;;;;;6140795;23;20211;-73
2022/11/22 05:04:20;;;;;;;4.53;2.15;;;6.30;99.90;;;;;;6132476;23;20202;-73
2022/11/22 05:06:47;;;;;;;4.70;2.50;;;6.40;99.90;;;;;;6140771;23;20702;-72
2022/11/22 05:09:15;;;;;;;3.53;2.20;;;6.40;99.90;;;;;;6134154;23;20510;-72
2022/11/22 05:11:42;;;;;;;2.75;2.38;;;6.40;99.90;;;;;;6141630;23;20214;-72
2022/11/22 05:14:11;;;;;;;5.55;1.80;;;6.30;99.90;;;;;;6140892;23;20232;-73
2022/11/22 05:16:40;;;;;;;3.58;1.88;;;6.40;99.90;;;;;;6145316;23;20199;-73
2022/11/22 05:19:07;;;;;;;4.85;1.70;;;6.40;99.90;;;;;;6144296;23;20194;-73
2022/11/22 05:21:36;;;;;;;4.22;2.15;;;6.40;99.90;;;;;;6136572;23;20626;-73
2022/11/22 05:24:03;;;;;;;5.72;2.20;;;6.50;99.90;;;;;;6139442;23;20620;-72
2022/11/22 05:26:32;;;;;;;6.53;1.77;;;6.50;99.90;;;;;;6144314;23;20195;-73
2022/11/22 05:29:04;;;;;;;4.88;2.40;;;6.50;99.90;;;;;;6139874;23;20183;-73
2022/11/22 05:31:34;;;;;;;5.65;3.03;;;6.80;99.90;;;;;;6142481;23;20197;-72
2022/11/22 05:34:01;;;;;;;2.83;1.90;;;6.60;99.90;;;;;;6140815;23;20186;-73
2022/11/22 05:36:31;;;;;;;5.07;2.65;;;6.60;99.90;;;;;;6133395;23;20545;-73
2022/11/22 05:38:59;;;;;;;7.70;2.47;;;6.50;99.90;;;;;;6134004;23;20203;-75
2022/11/22 05:41:27;;;;;;;6.00;2.70;;;6.50;99.90;;;;;;6130541;23;20199;-74
2022/11/22 05:43:55;;;;;;;4.15;2.17;;;6.50;99.90;;;;;;6115725;23;20225;-73
2022/11/22 05:46:25;;;;;;;3.97;2.30;;;6.50;99.90;;;;;;6126090;23;20191;-73
2022/11/22 05:48:55;;;;;;;2.78;2.00;;;6.40;99.90;;;;;;6145604;23;20187;-74
2022/11/22 05:51:24;;;;;;;4.55;2.00;;;6.40;99.90;;;;;;6129802;23;20245;-73
2022/11/22 05:53:51;;;;;;;3.90;2.38;;;6.40;99.90;;;;;;6137265;23;20661;-73
2022/11/22 05:56:21;;;;;;;5.30;2.17;;;6.40;99.90;;;;;;6137122;23;20191;-73
2022/11/22 05:58:49;;;;;;;4.40;2.38;;;6.50;99.90;;;;;;6134655;23;20261;-73
2022/11/22 06:01:19;;;;;;;4.05;2.30;;;6.50;99.90;;;;;;6127984;23;20212;-73
2022/11/22 06:03:47;;;;;;;5.85;2.00;;;6.50;99.90;;;;;;6132172;23;20622;-73
2022/11/22 06:06:16;;;;;;;4.30;2.75;;;6.50;99.90;;;;;;6130106;23;20655;-73
2022/11/22 06:08:46;;;;;;;6.63;2.25;;;6.40;99.90;;;;;;6126985;23;20567;-73
2022/11/22 06:11:17;;;;;;;4.68;2.55;;;6.40;99.90;;;;;;6139167;23;20206;-73
2022/11/22 06:13:46;;;;;;;4.57;2.40;;;6.30;99.90;;;;;;6132816;23;20274;-73
2022/11/22 06:16:13;;;;;;;5.93;2.20;;;6.30;99.90;;;;;;6125740;23;20191;-73
2022/11/22 06:18:41;;;;;;;4.22;2.47;;;6.30;99.90;;;;;;6144880;23;20482;-74
2022/11/22 06:21:11;;;;;;;12.88;9.00;;;6.30;99.90;;;;;;6156090;23;20343;-73
2022/11/22 06:23:40;;;;;;;10.30;6.55;;;6.30;99.90;;;;;;6127250;23;20656;-73
2022/11/22 06:26:10;;;;;;;10.60;4.85;;;6.30;99.90;;;;;;6143371;23;20206;-73
2022/11/22 06:28:39;;;;;;;7.40;4.40;;;6.30;99.90;;;;;;6141888;23;20730;-73
2022/11/22 06:31:11;;;;;;;5.90;2.50;;;6.30;99.90;;;;;;6139888;23;20187;-73
2022/11/22 06:33:40;;;;;;;4.45;2.10;;;6.40;99.90;;;;;;6129913;23;20196;-74
2022/11/22 06:36:08;;;;;;;5.18;2.10;;;6.40;99.90;;;;;;6147773;23;20187;-73
2022/11/22 06:38:37;;;;;;;4.25;2.22;;;6.40;99.90;;;;;;6143158;23;20191;-74
2022/11/22 06:41:07;;;;;;;7.03;2.78;;;6.40;99.90;;;;;;6144497;23;20218;-73
2022/11/22 06:43:35;;;;;;;5.35;2.45;;;6.50;99.90;;;;;;6140142;23;20282;-73
2022/11/22 06:46:04;;;;;;;4.97;2.78;;;6.50;99.90;;;;;;6145058;23;20195;-73
2022/11/22 06:48:34;;;;;;;6.03;2.55;;;6.50;99.90;;;;;;6134912;23;20218;-73
2022/11/22 06:51:02;;;;;;;4.57;1.90;;;6.60;99.90;;;;;;6141802;23;20239;-74
2022/11/22 06:53:30;;;;;;;7.43;2.60;;;6.60;99.90;;;;;;6135173;23;20542;-73
2022/11/22 06:56:01;;;;;;;4.38;1.90;;;6.60;99.90;;;;;;6142222;23;20184;-73
2022/11/22 06:58:29;;;;;;;5.18;2.72;;;6.70;99.90;;;;;;6136665;23;20271;-73
2022/11/22 07:01:02;;;;;;;5.90;2.45;;;6.70;99.90;;;;;;6139919;23;20297;-73
2022/11/22 07:03:29;;;;;;;6.15;2.50;;;6.70;99.90;;;;;;6133010;23;20187;-73
2022/11/22 07:05:56;;;;;;;5.50;2.10;;;6.80;99.90;;;;;;6145298;23;20190;-73
2022/11/22 07:08:24;;;;;;;4.35;2.03;;;6.80;99.90;;;;;;6139637;23;20598;-73
2022/11/22 07:10:51;;;;;;;7.07;2.72;;;6.80;99.90;;;;;;6140738;23;20186;-73
2022/11/22 07:13:18;;;;;;;5.38;2.42;;;6.80;99.90;;;;;;6144171;23;20285;-73
2022/11/22 07:15:55;;;;;;;4.32;2.60;;;6.80;99.90;;;;;;6147782;23;20218;-73
2022/11/22 07:18:22;;;;;;;5.80;3.20;;;6.80;99.90;;;;;;6148500;23;20555;-73
2022/11/22 07:20:50;;;;;;;6.40;2.75;;;6.80;99.90;;;;;;6143072;23;20211;-73
2022/11/22 07:23:17;;;;;;;7.80;2.80;;;6.80;99.90;;;;;;6103665;23;20187;-73
2022/11/22 07:25:44;;;;;;;8.30;2.40;;;6.80;99.90;;;;;;6138436;23;20230;-73
2022/11/22 07:28:12;;;;;;;7.78;4.30;;;6.70;99.90;;;;;;6148203;23;20637;-73
2022/11/22 07:30:39;;;;;;;6.35;3.63;;;6.70;99.90;;;;;;6148199;23;20254;-73
2022/11/22 07:33:08;;;;;;;8.27;4.45;;;6.60;99.90;;;;;;6134401;23;20191;-73
2022/11/22 07:35:37;;;;;;;9.40;3.70;;;6.60;99.90;;;;;;6147078;23;20192;-73
2022/11/22 07:38:04;;;;;;;9.15;4.15;;;6.60;99.90;;;;;;6147301;23;20199;-74
2022/11/22 07:40:33;;;;;;;4.60;3.80;;;6.50;99.90;;;;;;6145479;23;20191;-73
2022/11/22 07:43:00;;;;;;;6.50;4.43;;;6.50;99.90;;;;;;6140573;23;20293;-73
2022/11/22 07:45:27;;;;;;;6.30;3.60;;;6.50;99.90;;;;;;6131316;23;20195;-74
2022/11/22 07:47:54;;;;;;;6.18;3.55;;;6.50;99.90;;;;;;6147465;23;20244;-73
2022/11/22 07:50:23;;;;;;;6.38;3.60;;;6.50;99.90;;;;;;6142784;23;20201;-74
2022/11/22 07:52:55;;;;;;;4.78;2.90;;;6.40;99.90;;;;;;6140167;23;20195;-73
2022/11/22 07:55:24;;;;;;;9.75;3.58;;;6.50;99.90;;;;;;6121474;23;20187;-73
2022/11/22 07:57:51;;;;;;;11.63;3.85;;;6.40;99.90;;;;;;6098403;23;20195;-73
2022/11/22 08:00:18;;;;;;;4.57;3.03;;;6.40;99.90;;;;;;6142082;23;20625;-73
2022/11/22 08:02:45;;;;;;;5.20;3.00;;;6.40;99.90;;;;;;6144341;23;20266;-73
2022/11/22 08:05:13;;;;;;;7.22;3.40;;;6.30;99.90;;;;;;6114597;23;20273;-73
2022/11/22 08:07:46;;;;;;;7.60;3.67;;;6.30;99.90;;;;;;6114703;23;20266;-73
2022/11/22 08:10:14;;;;;;;5.32;3.40;;;6.30;99.90;;;;;;6132203;23;20305;-73
2022/11/22 08:12:41;;;;;;;7.72;3.70;;;6.30;99.90;;;;;;6141650;23;20261;-73
2022/11/22 08:15:11;;;;;;;5.93;3.58;;;6.30;99.90;;;;;;6129128;23;20183;-74
2022/11/22 08:17:38;;;;;;;3.97;3.10;;;6.30;99.90;;;;;;6141354;23;20267;-73
2022/11/22 08:20:07;;;;;;;6.32;3.70;;;6.30;99.90;;;;;;6140422;23;20726;-73
2022/11/22 08:22:35;;;;;;;6.00;3.50;;;6.30;99.90;;;;;;6121912;23;20214;-73
2022/11/22 08:25:06;;;;;;;6.15;3.70;;;6.30;99.90;;;;;;6142543;23;20593;-73
2022/11/22 08:27:33;;;;;;;6.20;3.50;;;6.30;99.90;;;;;;6139883;23;20187;-73
2022/11/22 08:30:00;;;;;;;5.63;3.70;;;6.30;99.90;;;;;;6136716;23;20186;-75
2022/11/22 08:32:27;;;;;;;5.38;3.25;;;6.30;99.90;;;;;;6147529;23;20202;-73
2022/11/22 08:34:54;;;;;;;8.23;3.55;;;6.30;99.90;;;;;;6140176;23;20194;-73
2022/11/22 08:37:21;;;;;;;5.40;3.67;;;6.40;99.90;;;;;;6144233;23;20240;-73
2022/11/22 08:39:49;;;;;;;6.28;4.32;;;6.40;99.90;;;;;;6140244;23;20184;-72
2022/11/22 08:42:17;;;;;;;6.43;3.55;;;6.50;99.90;;;;;;6132900;23;20207;-73
2022/11/22 08:44:44;;;;;;;7.53;3.30;;;6.50;99.90;;;;;;6138687;23;20654;-73
2022/11/22 08:47:12;;;;;;;5.28;3.42;;;6.50;99.90;;;;;;6133153;23;20233;-73
2022/11/22 08:49:40;;;;;;;5.93;3.90;;;6.60;99.90;;;;;;6138333;23;20218;-73
2022/11/22 08:52:07;;;;;;;5.47;3.67;;;6.70;99.90;;;;;;6145163;23;20309;-72
2022/11/22 08:54:34;;;;;;;5.53;3.40;;;6.70;99.90;;;;;;6142198;23;20194;-72
2022/11/22 08:57:02;;;;;;;6.97;4.05;;;6.80;99.90;;;;;;6129051;23;20576;-74
2022/11/22 08:59:31;;;;;;;6.28;4.05;;;6.80;99.90;;;;;;6144308;23;20262;-73
2022/11/22 09:01:58;;;;;;;5.82;4.20;;;6.90;99.90;;;;;;6138365;23;20208;-73
2022/11/22 09:04:25;;;;;;;7.43;4.50;;;6.90;99.90;;;;;;6143631;23;20226;-72
2022/11/22 09:06:52;;;;;;;7.95;4.20;;;6.90;99.90;;;;;;6141061;23;20598;-73
2022/11/22 09:09:20;;;;;;;7.50;3.65;;;7.00;99.90;;;;;;6144501;23;20213;-74
2022/11/22 09:11:47;;;;;;;7.03;3.70;;;7.00;99.90;;;;;;6141687;23;20188;-74
2022/11/22 09:14:14;;;;;;;6.60;3.60;;;7.10;99.90;;;;;;6143088;23;20205;-73
2022/11/22 09:16:43;;;;;;;6.47;3.50;;;7.10;99.90;;;;;;6138138;23;20192;-73
2022/11/22 09:19:10;;;;;;;9.18;3.88;;;7.10;99.90;;;;;;6146299;23;20201;-73
2022/11/22 09:21:37;;;;;;;4.95;3.20;;;7.20;99.90;;;;;;6140607;23;20239;-73
2022/11/22 09:24:05;;;;;;;5.43;3.33;;;7.30;99.90;;;;;;6143863;23;20296;-73
2022/11/22 09:26:32;;;;;;;6.72;3.63;;;7.30;99.90;;;;;;6136340;23;20191;-73
2022/11/22 09:29:00;;;;;;;4.40;2.95;;;7.40;99.90;;;;;;6127013;23;20272;-73
2022/11/22 09:31:27;;;;;;;9.73;3.45;;;7.50;99.90;;;;;;6131994;23;20212;-73
2022/11/22 09:33:55;;;;;;;7.25;3.65;;;7.60;99.90;;;;;;6139050;23;20278;-73
2022/11/22 09:36:25;;;;;;;6.97;3.30;;;7.60;99.90;;;;;;6135453;23;20649;-73
2022/11/22 09:38:53;;;;;;;6.38;3.25;;;7.60;99.90;;;;;;6140689;23;20194;-73
2022/11/22 09:41:43;;;;;;;4.85;3.10;;;7.70;99.90;;;;;;6131266;23;20270;-73
2022/11/22 09:44:17;;;;;;;9.00;3.50;;;7.70;99.90;;;;;;6133827;23;20192;-73
2022/11/22 09:46:51;;;;;;;5.43;3.08;;;7.80;99.90;;;;;;6136628;23;20726;-73
2022/11/22 09:49:27;;;;;;;7.20;3.30;;;7.90;99.90;;;;;;6131614;23;20197;-73
2022/11/22 09:52:01;;;;;;;8.88;3.78;;;7.90;99.90;;;;;;6129718;23;20243;-73
2022/11/22 09:54:34;;;;;;;4.68;3.13;;;8.10;99.90;;;;;;6125890;23;20199;-73
2022/11/22 09:57:05;;;;;;;9.52;3.05;;;8.00;99.90;;;;;;6136180;23;20192;-73
2022/11/22 09:59:35;;;;;;;6.07;3.00;;;8.00;99.90;;;;;;6133757;23;20314;-73
2022/11/22 10:02:07;;;;;;;4.90;2.63;;;8.00;99.90;;;;;;6142303;23;20525;-73
2022/11/22 10:04:38;;;;;;;6.75;2.80;;;8.10;99.90;;;;;;6147871;23;20602;-73
2022/11/22 10:07:13;;;;;;;4.80;2.78;;;8.10;99.90;;;;;;6134051;23;20555;-73
2022/11/22 10:09:47;;;;;;;6.43;2.80;;;8.10;99.90;;;;;;6129192;23;20196;-73
2022/11/22 10:12:19;;;;;;;4.75;2.45;;;8.10;99.90;;;;;;6129541;23;20185;-74
2022/11/22 10:14:52;;;;;;;3.55;2.10;;;8.10;99.90;;;;;;6141402;23;20205;-73
2022/11/22 10:17:36;;;;;;;4.57;2.50;;;8.10;99.90;;;;;;6132825;23;20234;-73
2022/11/22 10:20:13;;;;;;;7.30;2.85;;;8.10;99.90;;;;;;6136944;23;20714;-74
2022/11/22 10:22:40;;;;;;;4.60;3.42;;;8.10;99.90;;;;;;6136598;23;20627;-72
2022/11/22 10:25:15;;;;;;;6.78;3.03;;;8.10;99.90;;;;;;6142519;23;20230;-73
2022/11/22 10:27:43;;;;;;;10.15;3.60;;;8.10;99.90;;;;;;6143649;23;20646;-75
2022/11/22 10:30:15;;;;;;;5.95;2.92;;;8.10;99.90;;;;;;6139357;23;20587;-73
2022/11/22 10:32:57;;;;;;;6.35;2.72;;;8.10;99.90;;;;;;6111458;23;20260;-73
2022/11/22 10:35:42;;;;;;;4.10;2.50;;;8.20;99.90;;;;;;6109029;23;20193;-73
2022/11/22 10:38:39;;;;;;;5.05;2.33;;;8.20;99.90;;;;;;6137706;23;20216;-74
2022/11/22 10:41:23;;;;;;;7.20;3.40;;;8.20;99.90;;;;;;6119022;23;20194;-73
2022/11/22 10:44:03;;;;;;;3.97;2.30;;;8.20;99.90;;;;;;6135586;23;20223;-74
2022/11/22 10:46:43;;;;;;;5.07;2.95;;;8.30;99.90;;;;;;6137763;23;20185;-73
2022/11/22 10:49:21;;;;;;;5.75;2.35;;;8.30;99.90;;;;;;6146367;23;20192;-73
2022/11/22 10:52:00;;;;;;;6.10;2.50;;;8.30;99.90;;;;;;6141929;23;20215;-74
2022/11/22 10:54:35;;;;;;;5.72;2.40;;;8.30;99.90;;;;;;6144288;23;20282;-74
2022/11/22 10:57:13;;;;;;;5.03;2.08;;;8.30;99.90;;;;;;6149336;23;20765;-74
2022/11/22 10:59:54;;;;;;;4.60;2.10;;;8.40;99.90;;;;;;6148222;23;20275;-76
2022/11/22 11:02:45;;;;;;;4.72;1.98;;;8.40;99.90;;;;;;6136386;23;20213;-74
2022/11/22 11:05:16;;;;;;;3.55;1.58;;;8.50;99.90;;;;;;6147838;23;20237;-73
2022/11/22 11:07:49;;;;;;;5.20;1.95;;;8.50;99.90;;;;;;6127376;23;20201;-73
2022/11/22 11:10:19;;;;;;;5.18;2.10;;;8.50;99.90;;;;;;6148032;23;20239;-73
2022/11/22 11:12:50;;;;;;;6.93;1.90;;;8.50;99.90;;;;;;6154979;23;20230;-74
2022/11/22 11:15:22;;;;;;;5.32;1.95;;;8.50;99.90;;;;;;6153818;23;20206;-75
2022/11/22 11:17:54;;;;;;;4.78;2.22;;;8.50;99.90;;;;;;6146007;23;20196;-73
2022/11/22 11:20:25;;;;;;;3.83;1.58;;;8.60;99.90;;;;;;6150161;23;20268;-73
2022/11/22 11:22:53;;;;;;;5.30;1.60;;;8.60;99.90;;;;;;6150462;23;20213;-73
2022/11/22 11:25:32;;;;;;;2.80;1.80;;;8.60;99.90;;;;;;6149501;23;20275;-73
2022/11/22 11:28:03;;;;;;;4.70;1.80;;;8.60;99.90;;;;;;6139979;23;20196;-73
2022/11/22 11:30:38;;;;;;;2.53;1.70;;;8.70;99.90;;;;;;6144981;23;20197;-72
2022/11/22 11:33:19;;;;;;;3.05;1.80;;;8.70;99.90;;;;;;6146677;23;20263;-73
2022/11/22 11:35:47;;;;;;;7.07;2.10;;;8.70;99.90;;;;;;6146152;23;20641;-76
2022/11/22 11:38:31;;;;;;;4.95;1.67;;;8.70;99.90;;;;;;6126084;23;20262;-73
2022/11/22 11:41:53;;;;;;;4.32;1.65;;;8.70;99.90;;;;;;6147052;23;20183;-84
2022/11/22 11:44:27;;;;;;;4.70;1.55;;;8.80;99.90;;;;;;6131289;23;20197;-70
2022/11/22 11:46:54;;;;;;;2.47;1.73;;;8.90;99.90;;;;;;6128631;23;20195;-70
2022/11/22 11:49:25;;;;;;;5.72;1.80;;;8.80;99.90;;;;;;6135894;23;20246;-70
2022/11/22 11:51:55;;;;;;;4.55;2.38;;;8.50;99.90;;;;;;6134793;23;20202;-70
2022/11/22 11:54:28;;;;;;;2.30;1.67;;;8.80;99.90;;;;;;6141387;23;20232;-70
2022/11/22 11:56:57;;;;;;;4.95;2.20;;;8.70;99.90;;;;;;6135455;23;20694;-70
2022/11/22 11:59:32;;;;;;;5.78;1.60;;;8.60;99.90;;;;;;6132713;23;20209;-70
2022/11/22 12:02:04;;;;;;;4.55;1.50;;;8.60;99.90;;;;;;6141253;23;20200;-77
2022/11/22 12:04:34;;;;;;;3.97;1.25;;;8.70;99.90;;;;;;6141430;23;20192;-76
2022/11/22 12:07:04;;;;;;;2.75;1.10;;;8.70;99.90;;;;;;6147409;23;20185;-77
2022/11/22 12:09:36;;;;;;;3.08;1.50;;;8.80;99.90;;;;;;6139408;23;20190;-77
2022/11/22 12:12:12;;;;;;;2.58;1.30;;;8.80;99.90;;;;;;6137633;23;20279;-77
2022/11/22 12:14:44;;;;;;;3.35;1.70;;;8.90;99.90;;;;;;6137815;23;20190;-77
2022/11/22 12:17:23;;;;;;;3.67;1.73;;;9.00;99.90;;;;;;6133312;23;20214;-77
2022/11/22 12:19:57;;;;;;;6.75;1.90;;;9.10;99.90;;;;;;6140133;23;20242;-78
2022/11/22 12:22:29;;;;;;;3.92;1.80;;;9.20;99.90;;;;;;6139781;23;20294;-78
2022/11/22 12:25:03;;;;;;;5.63;1.92;;;9.20;99.90;;;;;;6137836;23;20344;-78
2022/11/22 12:27:32;;;;;;;4.10;1.50;;;9.20;99.90;;;;;;6144383;23;20288;-78
2022/11/22 12:29:59;;;;;;;5.50;1.77;;;9.20;99.90;;;;;;6142300;23;20193;-78
2022/11/22 12:32:30;;;;;;;5.55;1.98;;;9.20;99.90;;;;;;6128768;23;20190;-79
2022/11/22 12:35:04;;;;;;;3.95;1.17;;;9.20;99.90;;;;;;6140275;23;20243;-77
2022/11/22 12:37:38;;;;;;;3.40;1.35;;;9.20;99.90;;;;;;6132668;23;20511;-76
2022/11/22 12:40:16;;;;;;;3.90;1.30;;;9.20;99.90;;;;;;6134493;23;20190;-82
2022/11/22 12:42:48;;;;;;;7.68;1.52;;;9.20;99.90;;;;;;6129068;23;20873;-82
2022/11/22 12:45:25;;;;;;;5.18;1.42;;;9.20;99.90;;;;;;6141538;23;20273;-84
2022/11/22 12:47:55;;;;;;;3.95;1.20;;;9.20;99.90;;;;;;6105541;23;20190;-81
2022/11/22 12:50:32;;;;;;;2.75;1.10;;;9.30;99.90;;;;;;6114694;23;20201;-84
2022/11/22 12:53:05;;;;;;;4.53;1.13;;;9.30;99.90;;;;;;6108301;23;20222;-81
2022/11/22 12:55:44;;;;;;;2.38;0.90;;;9.40;99.90;;;;;;6135475;23;20257;-82
2022/11/22 12:58:22;;;;;;;2.08;1.27;;;9.40;99.90;;;;;;6147904;23;20245;-85
2022/11/22 13:01:07;;;;;;;2.90;1.13;;;9.40;99.90;;;;;;6151849;23;20190;-84
2022/11/22 13:03:42;;;;;;;1.65;1.08;;;9.20;99.90;;;;;;6109034;23;20222;-79
2022/11/22 13:06:12;;;;;;;3.33;1.35;;;9.20;99.90;;;;;;6121964;23;20194;-84
2022/11/22 13:08:53;;;;;;;1.80;0.98;;;9.20;99.90;;;;;;6141123;23;20190;-80
2022/11/22 13:11:25;;;;;;;3.10;1.10;;;9.20;99.90;;;;;;6140460;23;20209;-77
2022/11/22 13:13:56;;;;;;;3.38;1.40;;;9.30;99.90;;;;;;6120707;23;20183;-77
2022/11/22 13:16:23;;;;;;;3.80;1.75;;;9.30;99.90;;;;;;6128497;23;20196;-78
2022/11/22 13:18:56;;;;;;;4.80;1.70;;;9.40;99.90;;;;;;6123274;23;20190;-76
2022/11/22 13:21:34;;;;;;;2.40;1.10;;;9.40;99.90;;;;;;6132291;23;20669;-79
2022/11/22 13:24:43;;;;;;;2.67;1.25;;;9.40;99.90;;;;;;6106651;23;20559;-79